createdAt,value
2023-03-18T00:01:11.131Z,10.00
2023-03-18T00:03:39.777Z,10.00
2023-03-18T00:06:12.916Z,10.00
2023-03-18T00:08:41.387Z,10.00
2023-03-18T00:11:11.232Z,10.00
2023-03-18T00:13:39.757Z,10.10
2023-03-18T00:16:08.945Z,10.10
2023-03-18T00:18:37.070Z,10.10
2023-03-18T00:21:06.202Z,10.10
2023-03-18T00:23:36.241Z,10.00
2023-03-18T00:26:05.507Z,10.00
2023-03-18T00:28:33.872Z,10.00
2023-03-18T00:31:09.029Z,10.10
2023-03-18T00:33:40.610Z,10.00
2023-03-18T00:36:10.671Z,10.00
2023-03-18T00:38:41.108Z,10.00
2023-03-18T00:41:13.225Z,10.00
2023-03-18T00:43:49.272Z,10.00
2023-03-18T00:46:19.237Z,10.10
2023-03-18T00:48:47.998Z,10.10
2023-03-18T00:51:17.664Z,10.00
2023-03-18T00:53:49.026Z,10.00
2023-03-18T00:56:18.065Z,9.90
2023-03-18T00:58:46.722Z,9.90
2023-03-18T01:01:15.280Z,10.00
2023-03-18T01:03:44.205Z,10.00
2023-03-18T01:06:14.214Z,9.90
2023-03-18T01:08:42.830Z,9.90
2023-03-18T01:11:13.539Z,10.00
2023-03-18T01:13:41.799Z,10.10
2023-03-18T01:16:10.952Z,10.10
2023-03-18T01:18:40.726Z,10.00
2023-03-18T01:21:09.657Z,10.00
2023-03-18T01:23:38.232Z,10.10
2023-03-18T01:26:07.066Z,10.00
2023-03-18T01:28:36.776Z,10.00
2023-03-18T01:31:05.529Z,10.00
2023-03-18T01:33:33.603Z,10.00
2023-03-18T01:36:04.194Z,10.00
2023-03-18T01:38:33.497Z,10.00
2023-03-18T01:41:02.465Z,10.00
2023-03-18T01:43:32.051Z,10.00
2023-03-18T01:46:03.522Z,10.00
2023-03-18T01:48:34.712Z,10.00
2023-03-18T01:51:07.342Z,10.00
2023-03-18T01:53:39.852Z,10.00
2023-03-18T01:56:08.966Z,10.00
2023-03-18T01:58:40.483Z,10.00
2023-03-18T02:01:14.006Z,10.00
2023-03-18T02:06:13.669Z,10.00
2023-03-18T02:08:41.706Z,10.00
2023-03-18T02:11:10.380Z,10.00
2023-03-18T02:13:41.563Z,10.00
2023-03-18T02:16:15.726Z,10.00
2023-03-18T02:18:48.048Z,10.10
2023-03-18T02:21:29.858Z,10.10
2023-03-18T02:24:05.757Z,10.10
2023-03-18T02:26:41.176Z,10.10
2023-03-18T02:29:13.174Z,10.20
2023-03-18T02:31:43.439Z,10.20
2023-03-18T02:34:12.575Z,10.20
2023-03-18T02:36:41.321Z,10.10
2023-03-18T02:39:13.145Z,10.20
2023-03-18T02:41:41.361Z,10.10
2023-03-18T02:44:11.509Z,10.00
2023-03-18T02:46:48.751Z,10.00
2023-03-18T02:49:18.790Z,10.00
2023-03-18T02:51:46.763Z,10.00
2023-03-18T02:54:17.265Z,10.00
2023-03-18T02:56:46.055Z,10.00
2023-03-18T02:59:15.590Z,10.00
2023-03-18T03:01:45.782Z,9.90
2023-03-18T03:04:14.924Z,10.00
2023-03-18T03:06:43.662Z,10.00
2023-03-18T03:09:15.214Z,10.00
2023-03-18T03:11:45.017Z,10.00
2023-03-18T03:14:15.166Z,10.00
2023-03-18T03:16:43.631Z,10.00
2023-03-18T03:19:12.158Z,10.00
2023-03-18T03:21:40.294Z,10.00
2023-03-18T03:24:09.843Z,10.00
2023-03-18T03:26:38.054Z,10.00
2023-03-18T03:29:06.979Z,9.90
2023-03-18T03:31:36.770Z,9.90
2023-03-18T03:34:04.755Z,9.90
2023-03-18T03:36:32.902Z,9.80
2023-03-18T03:39:00.687Z,9.80
2023-03-18T03:41:29.105Z,9.70
2023-03-18T03:43:56.989Z,9.70
2023-03-18T03:46:25.459Z,9.70
2023-03-18T03:48:54.821Z,9.70
2023-03-18T03:51:22.691Z,9.80
2023-03-18T03:53:50.845Z,9.90
2023-03-18T03:56:18.675Z,9.80
2023-03-18T03:58:46.869Z,9.80
2023-03-18T04:01:14.761Z,9.90
2023-03-18T04:03:42.934Z,10.10
2023-03-18T04:06:12.234Z,10.30
2023-03-18T04:08:40.094Z,10.30
2023-03-18T04:11:07.985Z,10.20
2023-03-18T04:13:35.853Z,10.20
2023-03-18T04:16:03.815Z,10.10
2023-03-18T04:18:31.875Z,10.00
2023-03-18T04:20:59.736Z,10.10
2023-03-18T04:23:28.964Z,10.00
2023-03-18T04:25:56.820Z,10.10
2023-03-18T04:28:24.605Z,10.20
2023-03-18T04:30:52.480Z,10.20
2023-03-18T04:33:21.094Z,10.20
2023-03-18T04:35:49.692Z,10.10
2023-03-18T04:38:17.991Z,10.00
2023-03-18T04:40:47.688Z,10.00
2023-03-18T04:43:15.661Z,9.90
2023-03-18T04:45:43.651Z,9.80
2023-03-18T04:48:11.861Z,9.60
2023-03-18T04:50:39.798Z,9.50
2023-03-18T04:53:07.986Z,9.40
2023-03-18T04:55:36.631Z,9.30
2023-03-18T04:58:06.134Z,9.30
2023-03-18T05:00:34.023Z,9.20
2023-03-18T05:03:03.439Z,9.20
2023-03-18T05:05:31.686Z,9.20
2023-03-18T05:08:00.053Z,9.30
2023-03-18T05:10:28.137Z,9.30
2023-03-18T05:12:56.000Z,9.30
2023-03-18T05:15:25.406Z,9.30
2023-03-18T05:17:53.266Z,9.30
2023-03-18T05:20:21.518Z,9.20
2023-03-18T05:22:49.365Z,9.20
2023-03-18T05:25:17.342Z,9.20
2023-03-18T05:27:45.963Z,9.10
2023-03-18T05:30:15.411Z,9.10
2023-03-18T05:32:44.783Z,9.00
2023-03-18T05:35:12.929Z,9.00
2023-03-18T05:37:40.840Z,9.00
2023-03-18T05:40:11.862Z,8.90
2023-03-18T05:42:54.925Z,8.90
2023-03-18T05:45:24.332Z,8.80
2023-03-18T05:47:53.696Z,8.80
2023-03-18T05:50:30.086Z,8.80
2023-03-18T05:52:58.736Z,8.90
2023-03-18T05:55:28.406Z,8.90
2023-03-18T05:57:56.831Z,8.90
2023-03-18T06:00:25.661Z,8.90
2023-03-18T06:02:55.220Z,9.00
2023-03-18T06:05:24.554Z,9.00
2023-03-18T06:07:53.901Z,9.00
2023-03-18T06:10:22.705Z,9.10
2023-03-18T06:12:50.616Z,9.10
2023-03-18T06:15:21.313Z,9.30
2023-03-18T06:17:49.772Z,9.60
2023-03-18T06:20:19.712Z,9.70
2023-03-18T06:22:49.791Z,9.70
2023-03-18T06:25:20.557Z,9.70
2023-03-18T06:27:49.038Z,9.70
2023-03-18T06:30:18.632Z,9.70
2023-03-18T06:32:46.499Z,9.70
2023-03-18T06:35:15.673Z,9.70
2023-03-18T06:37:45.014Z,9.70
2023-03-18T06:40:13.349Z,9.80
2023-03-18T06:42:41.847Z,9.80
2023-03-18T06:45:10.610Z,9.80
2023-03-18T06:47:38.754Z,9.80
2023-03-18T06:50:07.106Z,9.80
2023-03-18T06:52:34.936Z,9.80
2023-03-18T06:55:04.654Z,9.90
2023-03-18T06:57:32.641Z,10.10
2023-03-18T07:00:00.487Z,10.10
2023-03-18T07:02:28.408Z,10.30
2023-03-18T07:04:56.339Z,10.40
2023-03-18T07:07:24.641Z,10.40
2023-03-18T07:09:52.838Z,10.50
2023-03-18T07:12:22.142Z,10.60
2023-03-18T07:14:50.014Z,10.80
2023-03-18T07:17:17.819Z,11.00
2023-03-18T07:19:47.099Z,11.10
2023-03-18T07:22:15.725Z,11.20
2023-03-18T07:24:44.121Z,11.20
2023-03-18T07:27:13.192Z,11.40
2023-03-18T07:29:42.647Z,11.50
2023-03-18T07:32:10.791Z,11.60
2023-03-18T07:34:38.904Z,11.70
2023-03-18T07:37:06.937Z,11.80
2023-03-18T07:39:34.917Z,11.80
2023-03-18T07:42:03.093Z,11.90
2023-03-18T07:44:31.286Z,11.90
2023-03-18T07:47:00.982Z,11.80
2023-03-18T07:49:29.998Z,11.90
2023-03-18T07:51:58.140Z,12.20
2023-03-18T07:54:26.456Z,12.70
2023-03-18T07:56:54.604Z,13.10
2023-03-18T07:59:22.544Z,13.50
2023-03-18T08:01:50.502Z,13.70
2023-03-18T08:04:20.189Z,13.80
2023-03-18T08:06:48.428Z,14.10
2023-03-18T08:09:16.633Z,14.30
2023-03-18T08:11:44.541Z,14.60
2023-03-18T08:14:12.475Z,14.80
2023-03-18T08:16:40.503Z,15.00
2023-03-18T08:19:08.707Z,15.20
2023-03-18T08:21:37.994Z,15.40
2023-03-18T08:24:06.567Z,15.50
2023-03-18T08:26:34.720Z,15.80
2023-03-18T08:29:02.818Z,15.90
2023-03-18T08:31:30.711Z,16.00
2023-03-18T08:33:59.508Z,16.10
2023-03-18T08:36:28.658Z,16.20
2023-03-18T08:38:58.045Z,16.20
2023-03-18T08:41:26.213Z,16.50
2023-03-18T08:43:57.250Z,16.70
2023-03-18T08:46:25.344Z,16.90
2023-03-18T08:48:54.354Z,17.00
2023-03-18T08:51:23.571Z,17.20
2023-03-18T08:53:51.721Z,17.30
2023-03-18T08:56:20.995Z,17.50
2023-03-18T08:58:49.207Z,17.90
2023-03-18T09:01:17.309Z,18.40
2023-03-18T09:03:45.807Z,18.60
2023-03-18T09:06:14.078Z,18.70
2023-03-18T09:08:42.544Z,18.60
2023-03-18T09:11:10.889Z,18.50
2023-03-18T09:13:41.298Z,18.40
2023-03-18T09:16:09.450Z,18.50
2023-03-18T09:18:37.516Z,18.70
2023-03-18T09:21:05.961Z,18.60
2023-03-18T09:23:35.082Z,18.60
2023-03-18T09:26:03.543Z,18.80
2023-03-18T09:28:31.382Z,18.80
2023-03-18T09:31:01.665Z,18.90
2023-03-18T09:33:29.830Z,18.70
2023-03-18T09:35:57.824Z,18.60
2023-03-18T09:38:25.830Z,18.40
2023-03-18T09:41:04.162Z,18.60
2023-03-18T09:43:45.873Z,18.80
2023-03-18T09:46:24.880Z,18.90
2023-03-18T09:49:14.941Z,18.90
2023-03-18T09:51:54.531Z,18.90
2023-03-18T09:54:33.011Z,19.20
2023-03-18T09:57:01.692Z,19.70
2023-03-18T09:59:35.887Z,19.90
2023-03-18T10:02:16.706Z,19.70
2023-03-18T10:04:48.318Z,19.50
2023-03-18T10:07:20.656Z,19.60
2023-03-18T10:09:53.945Z,19.20
2023-03-18T10:12:31.130Z,19.00
2023-03-18T10:15:16.299Z,18.90
2023-03-18T10:17:49.315Z,18.70
2023-03-18T10:20:38.135Z,18.70
2023-03-18T10:23:14.780Z,18.90
2023-03-18T10:25:49.875Z,18.80
2023-03-18T10:29:00.373Z,18.60
2023-03-18T10:31:37.900Z,18.40
2023-03-18T10:34:13.269Z,18.30
2023-03-18T10:36:51.028Z,18.30
2023-03-18T10:39:21.739Z,18.20
2023-03-18T10:41:50.995Z,18.10
2023-03-18T10:44:23.653Z,18.20
2023-03-18T10:46:59.496Z,18.30
2023-03-18T10:49:33.206Z,18.50
2023-03-18T10:52:07.698Z,18.70
2023-03-18T10:54:41.271Z,18.70
2023-03-18T10:57:15.108Z,18.70
2023-03-18T10:59:44.702Z,18.80
2023-03-18T11:02:19.644Z,19.10
2023-03-18T11:04:56.407Z,19.00
2023-03-18T11:07:26.813Z,19.30
2023-03-18T11:09:55.790Z,19.40
2023-03-18T11:12:27.087Z,19.60
2023-03-18T11:14:56.374Z,19.50
2023-03-18T11:17:29.505Z,19.40
2023-03-18T11:20:08.117Z,19.50
2023-03-18T11:22:37.455Z,19.60
2023-03-18T11:25:14.923Z,20.00
2023-03-18T11:27:45.877Z,20.20
2023-03-18T11:30:31.266Z,20.50
2023-03-18T11:33:07.110Z,20.60
2023-03-18T11:35:41.825Z,20.60
2023-03-18T11:38:15.749Z,20.40
2023-03-18T11:40:43.924Z,20.10
2023-03-18T11:43:18.759Z,20.00
2023-03-18T11:45:57.250Z,19.80
2023-03-18T11:48:35.642Z,19.70
2023-03-18T11:51:36.629Z,19.50
2023-03-18T11:54:20.195Z,19.30
2023-03-18T11:56:51.063Z,19.50
2023-03-18T11:59:31.418Z,19.50
2023-03-18T12:02:22.768Z,19.60
2023-03-18T12:05:05.800Z,19.80
2023-03-18T12:07:44.784Z,20.10
2023-03-18T12:10:24.084Z,20.00
2023-03-18T12:13:20.707Z,20.00
2023-03-18T12:15:54.694Z,20.10
2023-03-18T12:18:38.205Z,20.30
2023-03-18T12:21:21.244Z,20.10
2023-03-18T12:24:02.004Z,19.80
2023-03-18T12:26:36.528Z,19.60
2023-03-18T12:29:26.746Z,19.30
2023-03-18T12:32:06.571Z,19.10
2023-03-18T12:34:48.026Z,19.10
2023-03-18T12:37:32.342Z,18.90
2023-03-18T12:40:20.563Z,19.00
2023-03-18T12:43:14.271Z,19.00
2023-03-18T12:45:46.378Z,19.00
2023-03-18T12:48:20.748Z,19.10
2023-03-18T12:50:58.419Z,19.20
2023-03-18T12:53:31.655Z,19.10
2023-03-18T12:56:04.149Z,19.10
2023-03-18T12:58:39.028Z,19.20
2023-03-18T13:01:17.048Z,19.10
2023-03-18T13:03:47.721Z,19.00
2023-03-18T13:06:21.364Z,19.00
2023-03-18T13:09:00.990Z,19.00
2023-03-18T13:11:37.820Z,19.00
2023-03-18T13:14:15.119Z,18.90
2023-03-18T13:16:43.304Z,18.80
2023-03-18T13:19:12.244Z,18.80
2023-03-18T13:21:44.439Z,18.90
2023-03-18T13:24:48.287Z,18.90
2023-03-18T13:27:46.869Z,19.10
2023-03-18T13:30:25.715Z,19.40
2023-03-18T13:33:10.947Z,19.50
2023-03-18T13:35:53.646Z,19.70
2023-03-18T13:38:53.966Z,20.00
2023-03-18T13:41:40.283Z,20.30
2023-03-18T13:44:15.224Z,20.50
2023-03-18T13:47:00.403Z,20.20
2023-03-18T13:49:31.551Z,20.00
2023-03-18T13:52:01.976Z,19.90
2023-03-18T13:54:35.848Z,19.70
2023-03-18T13:57:34.236Z,19.60
2023-03-18T14:00:23.353Z,19.60
2023-03-18T14:03:17.214Z,19.70
2023-03-18T14:05:46.905Z,19.80
2023-03-18T14:08:38.257Z,19.70
2023-03-18T14:11:50.304Z,19.50
2023-03-18T14:14:56.745Z,19.40
2023-03-18T14:17:40.182Z,19.20
2023-03-18T14:20:28.567Z,19.20
2023-03-18T14:22:57.320Z,19.10
2023-03-18T14:25:41.511Z,19.10
2023-03-18T14:28:20.472Z,19.10
2023-03-18T14:30:55.803Z,19.10
2023-03-18T14:33:48.121Z,19.10
2023-03-18T14:36:31.057Z,19.10
2023-03-18T14:39:04.161Z,19.10
2023-03-18T14:41:38.239Z,19.00
2023-03-18T14:44:21.395Z,18.90
2023-03-18T14:46:51.936Z,18.80
2023-03-18T14:49:38.280Z,18.80
2023-03-18T14:52:17.166Z,18.80
2023-03-18T14:54:46.036Z,18.90
2023-03-18T14:57:14.186Z,19.00
2023-03-18T14:59:42.836Z,19.20
2023-03-18T15:02:22.740Z,19.20
2023-03-18T15:04:55.819Z,19.20
2023-03-18T15:07:35.417Z,19.30
2023-03-18T15:10:10.841Z,19.40
2023-03-18T15:12:38.920Z,19.30
2023-03-18T15:15:09.691Z,19.20
2023-03-18T15:17:38.041Z,19.30
2023-03-18T15:20:06.971Z,19.40
2023-03-18T15:22:36.542Z,19.50
2023-03-18T15:25:08.333Z,19.40
2023-03-18T15:27:38.067Z,19.30
2023-03-18T15:30:24.379Z,19.30
2023-03-18T15:33:03.339Z,19.10
2023-03-18T15:35:32.738Z,19.00
2023-03-18T15:38:12.872Z,18.90
2023-03-18T15:40:48.836Z,18.90
2023-03-18T15:43:28.351Z,18.90
2023-03-18T15:45:58.640Z,18.80
2023-03-18T15:48:31.516Z,19.00
2023-03-18T15:51:01.640Z,19.20
2023-03-18T15:53:39.314Z,19.30
2023-03-18T15:56:26.420Z,19.40
2023-03-18T15:59:13.857Z,19.40
2023-03-18T16:01:41.702Z,19.40
2023-03-18T16:04:13.214Z,19.40
2023-03-18T16:06:41.301Z,19.40
2023-03-18T16:09:21.395Z,19.20
2023-03-18T16:11:51.958Z,19.10
2023-03-18T16:14:22.528Z,19.00
2023-03-18T16:16:50.464Z,18.90
2023-03-18T16:19:25.307Z,18.80
2023-03-18T16:21:53.247Z,18.80
2023-03-18T16:24:22.679Z,18.80
2023-03-18T16:26:52.456Z,18.90
2023-03-18T16:29:28.449Z,19.00
2023-03-18T16:31:57.040Z,19.10
2023-03-18T16:34:25.182Z,19.20
2023-03-18T16:36:53.733Z,19.30
2023-03-18T16:39:25.481Z,19.30
2023-03-18T16:41:57.923Z,19.40
2023-03-18T16:44:28.074Z,19.50
2023-03-18T16:46:57.676Z,19.50
2023-03-18T16:49:31.820Z,19.40
2023-03-18T16:52:01.686Z,19.20
2023-03-18T16:54:34.076Z,19.10
2023-03-18T16:57:04.339Z,18.80
2023-03-18T16:59:36.187Z,18.70
2023-03-18T17:02:05.023Z,18.60
2023-03-18T17:04:34.749Z,18.50
2023-03-18T17:07:04.814Z,18.40
2023-03-18T17:09:34.734Z,18.30
2023-03-18T17:12:05.691Z,18.20
2023-03-18T17:14:37.503Z,18.20
2023-03-18T17:17:11.879Z,18.10
2023-03-18T17:19:40.077Z,18.00
2023-03-18T17:22:20.918Z,18.00
2023-03-18T17:24:51.168Z,17.90
2023-03-18T17:27:22.055Z,17.80
2023-03-18T17:29:50.525Z,17.70
2023-03-18T17:32:19.380Z,17.70
2023-03-18T17:34:48.885Z,17.60
2023-03-18T17:37:16.727Z,17.50
2023-03-18T17:39:44.743Z,17.40
2023-03-18T17:42:28.265Z,17.40
2023-03-18T17:45:06.750Z,17.40
2023-03-18T17:47:34.948Z,17.30
2023-03-18T17:50:04.805Z,17.10
2023-03-18T17:52:33.964Z,16.90
2023-03-18T17:55:01.847Z,16.80
2023-03-18T17:57:31.875Z,16.60
2023-03-18T17:59:59.716Z,16.40
2023-03-18T18:02:28.048Z,16.20
2023-03-18T18:04:55.941Z,16.00
2023-03-18T18:07:23.843Z,15.80
2023-03-18T18:09:52.508Z,15.60
2023-03-18T18:12:23.349Z,15.40
2023-03-18T18:14:52.990Z,15.20
2023-03-18T18:17:22.027Z,15.10
2023-03-18T18:19:50.008Z,14.90
2023-03-18T18:22:20.760Z,14.80
2023-03-18T18:24:50.422Z,14.80
2023-03-18T18:27:18.662Z,14.70
2023-03-18T18:29:46.929Z,14.60
2023-03-18T18:32:16.450Z,14.50
2023-03-18T18:34:45.109Z,14.40
2023-03-18T18:37:14.441Z,14.20
2023-03-18T18:39:42.497Z,14.20
2023-03-18T18:42:12.348Z,14.10
2023-03-18T18:44:40.234Z,14.00
2023-03-18T18:47:18.820Z,13.90
2023-03-18T18:49:47.592Z,13.80
2023-03-18T18:52:15.837Z,13.70
2023-03-18T18:54:43.644Z,13.60
2023-03-18T18:57:24.364Z,13.40
2023-03-18T18:59:52.270Z,13.30
2023-03-18T19:02:30.458Z,13.20
2023-03-18T19:04:58.571Z,13.00
2023-03-18T19:07:26.596Z,12.90
2023-03-18T19:09:54.945Z,12.80
2023-03-18T19:12:22.964Z,12.80
2023-03-18T19:14:51.160Z,12.70
2023-03-18T19:17:21.856Z,12.70
2023-03-18T19:19:52.749Z,12.70
2023-03-18T19:22:23.084Z,12.70
2023-03-18T19:24:51.148Z,12.70
2023-03-18T19:27:24.153Z,12.70
2023-03-18T19:29:53.325Z,12.70
2023-03-18T19:32:25.612Z,12.70
2023-03-18T19:34:58.029Z,12.70
2023-03-18T19:37:29.183Z,12.70
2023-03-18T19:39:57.239Z,12.80
2023-03-18T19:42:25.156Z,12.80
2023-03-18T19:44:53.180Z,12.80
2023-03-18T19:47:25.342Z,12.80
2023-03-18T19:49:55.200Z,12.80
2023-03-18T19:52:25.246Z,12.80
2023-03-18T19:54:54.562Z,12.80
2023-03-18T19:57:25.941Z,12.70
2023-03-18T19:59:55.935Z,12.60
2023-03-18T20:02:25.787Z,12.50
2023-03-18T20:04:57.514Z,12.40
2023-03-18T20:07:27.262Z,12.30
2023-03-18T20:09:56.070Z,12.20
2023-03-18T20:12:26.976Z,12.20
2023-03-18T20:14:54.838Z,12.10
2023-03-18T20:17:33.110Z,11.90
2023-03-18T20:20:02.331Z,11.90
2023-03-18T20:22:33.774Z,11.80
2023-03-18T20:25:02.279Z,11.60
2023-03-18T20:27:30.611Z,11.50
2023-03-18T20:29:59.072Z,11.50
2023-03-18T20:32:26.939Z,11.50
2023-03-18T20:34:54.887Z,11.50
2023-03-18T20:37:31.048Z,11.60
2023-03-18T20:39:59.016Z,11.60
2023-03-18T20:42:26.884Z,11.60
2023-03-18T20:44:54.845Z,11.60
2023-03-18T20:47:24.077Z,11.60
2023-03-18T20:49:53.900Z,11.60
2023-03-18T20:52:29.599Z,11.70
2023-03-18T20:54:58.203Z,11.70
2023-03-18T20:57:27.334Z,11.70
2023-03-18T20:59:55.329Z,11.70
2023-03-18T21:02:32.022Z,11.60
2023-03-18T21:05:01.976Z,11.60
2023-03-18T21:07:31.488Z,11.40
2023-03-18T21:09:59.369Z,11.30
2023-03-18T21:12:27.334Z,11.20
2023-03-18T21:14:55.279Z,11.10
2023-03-18T21:17:24.558Z,11.10
2023-03-18T21:19:54.122Z,11.00
2023-03-18T21:22:24.448Z,11.00
2023-03-18T21:24:53.733Z,10.90
2023-03-18T21:27:24.469Z,10.90
2023-03-18T21:29:53.243Z,10.90
2023-03-18T21:32:23.909Z,10.90
2023-03-18T21:34:53.135Z,10.90
2023-03-18T21:37:23.177Z,10.80
2023-03-18T21:39:53.160Z,10.70
2023-03-18T21:42:24.525Z,10.60
2023-03-18T21:44:52.961Z,10.60
2023-03-18T21:47:22.884Z,10.50
2023-03-18T21:49:51.470Z,10.50
2023-03-18T21:52:22.424Z,10.50
2023-03-18T21:54:50.372Z,10.30
2023-03-18T21:57:22.077Z,10.30
2023-03-18T21:59:50.513Z,10.20
2023-03-18T22:02:28.459Z,10.20
2023-03-18T22:04:57.815Z,10.20
2023-03-18T22:07:26.565Z,10.20
2023-03-18T22:09:54.666Z,10.20
2023-03-18T22:12:25.554Z,10.20
2023-03-18T22:14:53.985Z,10.10
2023-03-18T22:17:24.598Z,10.10
2023-03-18T22:19:53.148Z,10.00
2023-03-18T22:22:23.017Z,9.90
2023-03-18T22:24:52.470Z,9.90
2023-03-18T22:27:22.123Z,9.90
2023-03-18T22:29:52.449Z,9.90
2023-03-18T22:32:37.393Z,10.10
2023-03-18T22:35:08.149Z,10.10
2023-03-18T22:37:36.024Z,10.10
2023-03-18T22:40:04.306Z,10.00
2023-03-18T22:42:32.358Z,10.00
2023-03-18T22:45:01.766Z,9.90
2023-03-18T22:47:30.077Z,9.90
2023-03-18T22:49:57.969Z,9.90
2023-03-18T22:52:29.792Z,10.10
2023-03-18T22:55:00.858Z,10.30
2023-03-18T22:57:29.487Z,10.30
2023-03-18T22:59:58.244Z,10.30
2023-03-18T23:02:28.759Z,10.30
2023-03-18T23:04:57.560Z,10.30
2023-03-18T23:07:28.887Z,10.40
2023-03-18T23:09:59.048Z,10.40
2023-03-18T23:12:30.206Z,10.50
2023-03-18T23:14:58.876Z,10.40
2023-03-18T23:17:29.392Z,10.50
2023-03-18T23:19:57.587Z,10.60
2023-03-18T23:22:27.968Z,10.70
2023-03-18T23:24:55.937Z,10.70
2023-03-18T23:27:25.823Z,10.70
2023-03-18T23:29:54.112Z,10.70
2023-03-18T23:32:23.689Z,10.80
2023-03-18T23:34:53.412Z,10.80
2023-03-18T23:37:21.863Z,10.80
2023-03-18T23:39:49.688Z,10.80
2023-03-18T23:42:19.818Z,10.80
2023-03-18T23:44:48.086Z,10.80
2023-03-18T23:47:16.944Z,10.90
2023-03-18T23:49:44.789Z,11.00
2023-03-18T23:52:16.924Z,10.90
2023-03-18T23:54:44.767Z,10.90
2023-03-18T23:57:12.953Z,10.90
2023-03-18T23:59:40.896Z,10.80
